Bay Breeze — WDE3988 — position and weather

sailwx.info

Track history (hours):
 
Tides and Currents Weather Stations Pressure Air Temp Water Temp Dewpoint Dewpoint Depression Visibility Wind Speed Wind Dir Waves Ship Positions

Bay Breeze

Owner: Harbor Bay Maritime Corporation, San Francisco, CA. More information available from US FCC via Universal Licensing System and Coast Guard Vessel Documentation Center.

Last reported at 2018-Mar-27 16:16 UTC. Time now 2018-Apr-25 20:18 UTC.
Position N 37°47' W 122°17'.
Warning: this ship's position is 29 days out of date.

Length 28 m; draft 1.6 m.

Type: Passenger vessel. MMSI: 366971280.

Date/timePositionNaut miles runAvg speedWind from/ knotsBaromVisibWave heightAir tempDewpointWater temp
2018-Mar-27 16:16N 37°47' W 122°17'0 0.2
2018-Mar-27 16:00N 37°47' W 122°17'0 0.0
2018-Mar-27 15:31N 37°47' W 122°17'0 0.0
2018-Mar-27 15:01N 37°47' W 122°17'0 0.0
2018-Mar-27 14:30N 37°47' W 122°17'0 0.0
2018-Mar-27 14:01N 37°47' W 122°17'0 0.0
2018-Mar-27 13:31N 37°47' W 122°17'0 0.0
2018-Mar-26 16:15N 37°47' W 122°17'0 0.7
2018-Mar-26 16:00N 37°48' W 122°18'4 7.9
2018-Mar-26 15:30N 37°44' W 122°21'3 6.8
2018-Mar-26 15:01N 37°48' W 122°20'3 5.2
2018-Mar-26 14:30N 37°48' W 122°24'714.7
2018-Mar-26 14:00N 37°44' W 122°15'2 4.0
2018-Mar-26 13:31N 37°45' W 122°18'611.4
2018-Mar-26 13:00N 37°48' W 122°24'  
2018-Mar-24 03:36N 37°48' W 122°24'0 0.0
2018-Mar-24 03:30N 37°48' W 122°24'815.3
2018-Mar-24 03:00N 37°44' W 122°15'714.6
2018-Mar-24 02:30N 37°48' W 122°24'714.3
2018-Mar-24 02:00N 37°44' W 122°15'714.9
2018-Mar-24 01:30N 37°48' W 122°24'714.6
2018-Mar-24 01:01N 37°44' W 122°15'714.6
2018-Mar-24 00:30N 37°48' W 122°24'714.6
2018-Mar-24 00:00N 37°44' W 122°15'714.6
2018-Mar-23 23:30N 37°48' W 122°24'0 0.0
2018-Mar-23 23:00N 37°48' W 122°24'0 0.0
2018-Mar-23 22:29N 37°48' W 122°24'1 1.2
2018-Mar-23 22:00N 37°48' W 122°23'4 8.5
2018-Mar-23 21:30N 37°48' W 122°17'5 9.6
2018-Mar-23 21:00N 37°48' W 122°24'1 2.7
2018-Mar-23 20:30N 37°49' W 122°25'0 0.0
2018-Mar-23 20:00N 37°49' W 122°25'0 0.0
2018-Mar-23 19:30N 37°49' W 122°25'0 0.0
2018-Mar-23 19:00N 37°49' W 122°25'1 2.7
2018-Mar-23 18:30N 37°48' W 122°24'510.6
2018-Mar-23 18:01N 37°48' W 122°17'510.6
2018-Mar-23 17:30N 37°48' W 122°24'1 2.5
2018-Mar-23 17:00N 37°49' W 122°25'0 0.0
2018-Mar-23 16:30N 37°49' W 122°25'1 2.6
2018-Mar-23 16:00N 37°48' W 122°23'714.5
2018-Mar-23 15:30N 37°44' W 122°15'714.5
2018-Mar-23 15:00N 37°48' W 122°23'713.4
2018-Mar-23 14:28N 37°44' W 122°15'715.8
2018-Mar-23 14:00N 37°48' W 122°24'714.6
2018-Mar-23 13:30N 37°44' W 122°15'0 0.0
2018-Mar-23 13:00N 37°44' W 122°15'915.9
2018-Mar-23 12:28N 37°49' W 122°25'0 0.0
2018-Mar-23 12:00N 37°49' W 122°25'0 0.0
2018-Mar-23 03:47N 37°49' W 122°25'0 1.6
2018-Mar-23 03:31N 37°49' W 122°24'916.9
2018-Mar-23 03:00N 37°44' W 122°15'714.0
2018-Mar-23 02:29N 37°48' W 122°24'715.5
2018-Mar-23 02:00N 37°44' W 122°15'714.6
2018-Mar-23 01:30N 37°48' W 122°24'714.6
2018-Mar-23 01:00N 37°44' W 122°15'714.5
2018-Mar-23 00:30N 37°48' W 122°24'714.8
2018-Mar-23 00:00N 37°44' W 122°15'714.5
2018-Mar-22 23:30N 37°48' W 122°24'0 0.0
2018-Mar-22 23:00N 37°48' W 122°24'0 0.0
2018-Mar-22 22:30N 37°48' W 122°24'1 1.9
2018-Mar-22 22:01N 37°48' W 122°22'4 7.3
2018-Mar-22 21:31N 37°47' W 122°18'5 9.2
2018-Mar-22 21:00N 37°48' W 122°24'1 2.6
2018-Mar-22 20:30N 37°49' W 122°25'0 0.0
2018-Mar-22 20:00N 37°49' W 122°25'0 0.0
2018-Mar-22 19:30N 37°49' W 122°25'0 0.0
2018-Mar-22 19:00N 37°49' W 122°25'1 2.7
2018-Mar-22 18:30N 37°48' W 122°23'510.4
2018-Mar-22 18:00N 37°48' W 122°17'510.7
2018-Mar-22 17:30N 37°48' W 122°24'1 2.6
2018-Mar-22 17:01N 37°49' W 122°25'0 0.0
2018-Mar-22 16:30N 37°49' W 122°25'1 2.6
2018-Mar-22 16:00N 37°48' W 122°24'714.5
2018-Mar-22 15:30N 37°44' W 122°15'714.4
2018-Mar-22 15:00N 37°48' W 122°23'714.5
2018-Mar-22 14:30N 37°44' W 122°15'714.8
2018-Mar-22 14:01N 37°48' W 122°24'714.4
2018-Mar-22 13:30N 37°44' W 122°15'0 0.0
2018-Mar-22 13:01N 37°44' W 122°15'917.0
2018-Mar-22 12:30N 37°49' W 122°25'0 0.0
2018-Mar-22 12:00N 37°49' W 122°25'0 0.0
2018-Mar-22 03:43N 37°49' W 122°25'1 4.2
2018-Mar-22 03:30N 37°49' W 122°24'815.7
2018-Mar-22 03:00N 37°44' W 122°15'714.6
2018-Mar-22 02:30N 37°48' W 122°24'714.6
2018-Mar-22 02:00N 37°44' W 122°15'714.6
2018-Mar-22 01:30N 37°48' W 122°23'714.5
2018-Mar-22 01:00N 37°44' W 122°15'714.5
2018-Mar-22 00:30N 37°48' W 122°24'714.7
2018-Mar-22 00:00N 37°44' W 122°15'714.6
2018-Mar-21 23:30N 37°48' W 122°24'0 0.0
2018-Mar-21 23:00N 37°48' W 122°24'0 0.0
2018-Mar-21 22:29N 37°48' W 122°24'2 3.5
2018-Mar-21 22:00N 37°48' W 122°21'3 6.3
2018-Mar-21 21:30N 37°48' W 122°17'510.0
2018-Mar-21 21:00N 37°48' W 122°24'1 2.6
2018-Mar-21 20:30N 37°49' W 122°25'0 0.0
2018-Mar-21 20:01N 37°49' W 122°25'0 0.0
2018-Mar-21 19:30N 37°49' W 122°25'0 0.0
2018-Mar-21 19:00N 37°49' W 122°25'1 2.6
2018-Mar-21 18:30N 37°48' W 122°24'510.5
2018-Mar-21 18:00N 37°48' W 122°17'510.2
2018-Mar-21 17:30N 37°48' W 122°24'1 2.7
2018-Mar-21 17:00N 37°49' W 122°25'0 0.1
2018-Mar-21 16:30N 37°49' W 122°25'1 2.8
2018-Mar-21 16:00N 37°48' W 122°23'714.4
2018-Mar-21 15:30N 37°44' W 122°15'714.5
2018-Mar-21 15:00N 37°48' W 122°24'714.7
2018-Mar-21 14:30N 37°44' W 122°15'714.7
2018-Mar-21 14:01N 37°48' W 122°24'714.3
2018-Mar-21 13:30N 37°44' W 122°15'3 6.3
2018-Mar-21 13:00N 37°46' W 122°19'5 9.3
2018-Mar-21 12:31N 37°48' W 122°24'0 0.0
2018-Mar-21 03:38N 37°48' W 122°24'0 2.7
2018-Mar-21 03:30N 37°48' W 122°23'815.0
2018-Mar-21 03:00N 37°44' W 122°15'714.7
2018-Mar-21 02:31N 37°48' W 122°24'714.5
2018-Mar-21 02:00N 37°44' W 122°15'714.6
2018-Mar-21 01:30N 37°48' W 122°24'714.7
2018-Mar-21 01:00N 37°44' W 122°15'714.3
2018-Mar-21 00:30N 37°48' W 122°24'715.0
2018-Mar-21 00:01N 37°44' W 122°15'714.5
2018-Mar-20 23:30N 37°48' W 122°24'0 0.0
2018-Mar-20 23:00N 37°48' W 122°24'0 0.0
2018-Mar-20 22:30N 37°48' W 122°24'0 0.7
2018-Mar-20 22:01N 37°48' W 122°23'5 9.1
2018-Mar-20 21:31N 37°48' W 122°17'5 9.7
2018-Mar-20 21:00N 37°48' W 122°24'1 2.4
2018-Mar-20 20:29N 37°49' W 122°25'0 0.1
2018-Mar-20 20:00N 37°49' W 122°25'0 0.1
2018-Mar-20 19:30N 37°49' W 122°25'0 0.0
2018-Mar-20 19:00N 37°49' W 122°25'1 2.5
2018-Mar-20 18:30N 37°48' W 122°24'510.7
2018-Mar-20 18:00N 37°48' W 122°17'510.5
2018-Mar-20 17:30N 37°48' W 122°24'1 2.7
2018-Mar-20 17:00N 37°49' W 122°25'0 0.0
2018-Mar-20 16:30N 37°49' W 122°25'1 2.6
2018-Mar-20 16:01N 37°48' W 122°24'714.6
2018-Mar-20 15:30N 37°44' W 122°15'714.6
2018-Mar-20 15:00N 37°48' W 122°24'714.6
2018-Mar-20 14:30N 37°44' W 122°15'714.7
2018-Mar-20 14:00N 37°48' W 122°24'714.0
2018-Mar-20 13:29N 37°44' W 122°15'2 4.8
2018-Mar-20 13:00N 37°45' W 122°18'511.0
2018-Mar-20 12:30N 37°48' W 122°24'0 0.0
2018-Mar-20 03:43N 37°48' W 122°24'0 0.9
2018-Mar-20 03:31N 37°48' W 122°24'814.9
2018-Mar-20 03:00N 37°44' W 122°15'714.9
2018-Mar-20 02:30N 37°48' W 122°24'714.6
2018-Mar-20 02:01N 37°44' W 122°15'714.5
2018-Mar-20 01:30N 37°48' W 122°23'714.3
2018-Mar-20 01:00N 37°44' W 122°16'714.4
2018-Mar-20 00:30N 37°48' W 122°24'714.6
2018-Mar-20 00:00N 37°44' W 122°15'714.0
2018-Mar-19 23:29N 37°48' W 122°24'0 0.0
2018-Mar-19 23:00N 37°48' W 122°24'0 0.0
2018-Mar-19 22:30N 37°48' W 122°24'2 3.6
2018-Mar-19 22:00N 37°48' W 122°21'3 5.7
2018-Mar-19 21:31N 37°47' W 122°18'5 9.1
2018-Mar-19 21:00N 37°48' W 122°24'1 2.6
2018-Mar-19 20:30N 37°49' W 122°25'0 0.0
2018-Mar-19 20:00N 37°49' W 122°25'0 0.0
2018-Mar-19 19:30N 37°49' W 122°25'0 0.0
2018-Mar-19 19:00N 37°49' W 122°25'1 2.6
2018-Mar-19 18:30N 37°48' W 122°24'510.7
2018-Mar-19 18:00N 37°48' W 122°17'510.6
2018-Mar-19 17:30N 37°48' W 122°24'1 2.6
2018-Mar-19 17:00N 37°49' W 122°25'0 0.0
2018-Mar-19 16:30N 37°49' W 122°25'1 2.7
2018-Mar-19 16:00N 37°48' W 122°23'5 9.1
2018-Mar-19 15:30N 37°47' W 122°18'5 9.1
2018-Mar-19 15:00N 37°48' W 122°23'714.0
2018-Mar-19 14:29N 37°44' W 122°15'715.3
2018-Mar-19 14:00N 37°48' W 122°24'714.5
2018-Mar-19 13:30N 37°44' W 122°15'4 9.0
2018-Mar-19 13:00N 37°46' W 122°21'3 6.5
2018-Mar-19 12:30N 37°48' W 122°24'  
Track history (hours):
 
Tides and Currents Weather Stations Pressure Air Temp Water Temp Dewpoint Dewpoint Depression Visibility Wind Speed Wind Dir Waves Ship Positions

Bay Breeze

Owner: Harbor Bay Maritime Corporation, San Francisco, CA. More information available from US FCC via Universal Licensing System and Coast Guard Vessel Documentation Center.

Last reported at 2018-Mar-27 16:16 UTC. Time now 2018-Apr-25 20:18 UTC.
Position N 37°47' W 122°17'.
Warning: this ship's position is 29 days out of date.

Length 28 m; draft 1.6 m.

Type: Passenger vessel. MMSI: 366971280.

Date/timePositionNaut miles runAvg speedWind from/ knotsBaromVisibWave heightAir tempDewpointWater temp
2018-Mar-27 16:16N 37°47' W 122°17'0 0.2
2018-Mar-27 16:00N 37°47' W 122°17'0 0.0
2018-Mar-27 15:31N 37°47' W 122°17'0 0.0
2018-Mar-27 15:01N 37°47' W 122°17'0 0.0
2018-Mar-27 14:30N 37°47' W 122°17'0 0.0
2018-Mar-27 14:01N 37°47' W 122°17'0 0.0
2018-Mar-27 13:31N 37°47' W 122°17'0 0.0
2018-Mar-26 16:15N 37°47' W 122°17'0 0.7
2018-Mar-26 16:00N 37°48' W 122°18'4 7.9
2018-Mar-26 15:30N 37°44' W 122°21'3 6.8
2018-Mar-26 15:01N 37°48' W 122°20'3 5.2
2018-Mar-26 14:30N 37°48' W 122°24'714.7
2018-Mar-26 14:00N 37°44' W 122°15'2 4.0
2018-Mar-26 13:31N 37°45' W 122°18'611.4
2018-Mar-26 13:00N 37°48' W 122°24'  
2018-Mar-24 03:36N 37°48' W 122°24'0 0.0
2018-Mar-24 03:30N 37°48' W 122°24'815.3
2018-Mar-24 03:00N 37°44' W 122°15'714.6
2018-Mar-24 02:30N 37°48' W 122°24'714.3
2018-Mar-24 02:00N 37°44' W 122°15'714.9
2018-Mar-24 01:30N 37°48' W 122°24'714.6
2018-Mar-24 01:01N 37°44' W 122°15'714.6
2018-Mar-24 00:30N 37°48' W 122°24'714.6
2018-Mar-24 00:00N 37°44' W 122°15'714.6
2018-Mar-23 23:30N 37°48' W 122°24'0 0.0
2018-Mar-23 23:00N 37°48' W 122°24'0 0.0
2018-Mar-23 22:29N 37°48' W 122°24'1 1.2
2018-Mar-23 22:00N 37°48' W 122°23'4 8.5
2018-Mar-23 21:30N 37°48' W 122°17'5 9.6
2018-Mar-23 21:00N 37°48' W 122°24'1 2.7
2018-Mar-23 20:30N 37°49' W 122°25'0 0.0
2018-Mar-23 20:00N 37°49' W 122°25'0 0.0
2018-Mar-23 19:30N 37°49' W 122°25'0 0.0
2018-Mar-23 19:00N 37°49' W 122°25'1 2.7
2018-Mar-23 18:30N 37°48' W 122°24'510.6
2018-Mar-23 18:01N 37°48' W 122°17'510.6
2018-Mar-23 17:30N 37°48' W 122°24'1 2.5
2018-Mar-23 17:00N 37°49' W 122°25'0 0.0
2018-Mar-23 16:30N 37°49' W 122°25'1 2.6
2018-Mar-23 16:00N 37°48' W 122°23'714.5
2018-Mar-23 15:30N 37°44' W 122°15'714.5
2018-Mar-23 15:00N 37°48' W 122°23'713.4
2018-Mar-23 14:28N 37°44' W 122°15'715.8
2018-Mar-23 14:00N 37°48' W 122°24'714.6
2018-Mar-23 13:30N 37°44' W 122°15'0 0.0
2018-Mar-23 13:00N 37°44' W 122°15'915.9
2018-Mar-23 12:28N 37°49' W 122°25'0 0.0
2018-Mar-23 12:00N 37°49' W 122°25'0 0.0
2018-Mar-23 03:47N 37°49' W 122°25'0 1.6
2018-Mar-23 03:31N 37°49' W 122°24'916.9
2018-Mar-23 03:00N 37°44' W 122°15'714.0
2018-Mar-23 02:29N 37°48' W 122°24'715.5
2018-Mar-23 02:00N 37°44' W 122°15'714.6
2018-Mar-23 01:30N 37°48' W 122°24'714.6
2018-Mar-23 01:00N 37°44' W 122°15'714.5
2018-Mar-23 00:30N 37°48' W 122°24'714.8
2018-Mar-23 00:00N 37°44' W 122°15'714.5
2018-Mar-22 23:30N 37°48' W 122°24'0 0.0
2018-Mar-22 23:00N 37°48' W 122°24'0 0.0
2018-Mar-22 22:30N 37°48' W 122°24'1 1.9
2018-Mar-22 22:01N 37°48' W 122°22'4 7.3
2018-Mar-22 21:31N 37°47' W 122°18'5 9.2
2018-Mar-22 21:00N 37°48' W 122°24'1 2.6
2018-Mar-22 20:30N 37°49' W 122°25'0 0.0
2018-Mar-22 20:00N 37°49' W 122°25'0 0.0
2018-Mar-22 19:30N 37°49' W 122°25'0 0.0
2018-Mar-22 19:00N 37°49' W 122°25'1 2.7
2018-Mar-22 18:30N 37°48' W 122°23'510.4
2018-Mar-22 18:00N 37°48' W 122°17'510.7
2018-Mar-22 17:30N 37°48' W 122°24'1 2.6
2018-Mar-22 17:01N 37°49' W 122°25'0 0.0
2018-Mar-22 16:30N 37°49' W 122°25'1 2.6
2018-Mar-22 16:00N 37°48' W 122°24'714.5
2018-Mar-22 15:30N 37°44' W 122°15'714.4
2018-Mar-22 15:00N 37°48' W 122°23'714.5
2018-Mar-22 14:30N 37°44' W 122°15'714.8
2018-Mar-22 14:01N 37°48' W 122°24'714.4
2018-Mar-22 13:30N 37°44' W 122°15'0 0.0
2018-Mar-22 13:01N 37°44' W 122°15'917.0
2018-Mar-22 12:30N 37°49' W 122°25'0 0.0
2018-Mar-22 12:00N 37°49' W 122°25'0 0.0
2018-Mar-22 03:43N 37°49' W 122°25'1 4.2
2018-Mar-22 03:30N 37°49' W 122°24'815.7
2018-Mar-22 03:00N 37°44' W 122°15'714.6
2018-Mar-22 02:30N 37°48' W 122°24'714.6
2018-Mar-22 02:00N 37°44' W 122°15'714.6
2018-Mar-22 01:30N 37°48' W 122°23'714.5
2018-Mar-22 01:00N 37°44' W 122°15'714.5
2018-Mar-22 00:30N 37°48' W 122°24'714.7
2018-Mar-22 00:00N 37°44' W 122°15'714.6
2018-Mar-21 23:30N 37°48' W 122°24'0 0.0
2018-Mar-21 23:00N 37°48' W 122°24'0 0.0
2018-Mar-21 22:29N 37°48' W 122°24'2 3.5
2018-Mar-21 22:00N 37°48' W 122°21'3 6.3
2018-Mar-21 21:30N 37°48' W 122°17'510.0
2018-Mar-21 21:00N 37°48' W 122°24'1 2.6
2018-Mar-21 20:30N 37°49' W 122°25'0 0.0
2018-Mar-21 20:01N 37°49' W 122°25'0 0.0
2018-Mar-21 19:30N 37°49' W 122°25'0 0.0
2018-Mar-21 19:00N 37°49' W 122°25'1 2.6
2018-Mar-21 18:30N 37°48' W 122°24'510.5
2018-Mar-21 18:00N 37°48' W 122°17'510.2
2018-Mar-21 17:30N 37°48' W 122°24'1 2.7
2018-Mar-21 17:00N 37°49' W 122°25'0 0.1
2018-Mar-21 16:30N 37°49' W 122°25'1 2.8
2018-Mar-21 16:00N 37°48' W 122°23'714.4
2018-Mar-21 15:30N 37°44' W 122°15'714.5
2018-Mar-21 15:00N 37°48' W 122°24'714.7
2018-Mar-21 14:30N 37°44' W 122°15'714.7
2018-Mar-21 14:01N 37°48' W 122°24'714.3
2018-Mar-21 13:30N 37°44' W 122°15'3 6.3
2018-Mar-21 13:00N 37°46' W 122°19'5 9.3
2018-Mar-21 12:31N 37°48' W 122°24'0 0.0
2018-Mar-21 03:38N 37°48' W 122°24'0 2.7
2018-Mar-21 03:30N 37°48' W 122°23'815.0
2018-Mar-21 03:00N 37°44' W 122°15'714.7
2018-Mar-21 02:31N 37°48' W 122°24'714.5
2018-Mar-21 02:00N 37°44' W 122°15'714.6
2018-Mar-21 01:30N 37°48' W 122°24'714.7
2018-Mar-21 01:00N 37°44' W 122°15'714.3
2018-Mar-21 00:30N 37°48' W 122°24'715.0
2018-Mar-21 00:01N 37°44' W 122°15'714.5
2018-Mar-20 23:30N 37°48' W 122°24'0 0.0
2018-Mar-20 23:00N 37°48' W 122°24'0 0.0
2018-Mar-20 22:30N 37°48' W 122°24'0 0.7
2018-Mar-20 22:01N 37°48' W 122°23'5 9.1
2018-Mar-20 21:31N 37°48' W 122°17'5 9.7
2018-Mar-20 21:00N 37°48' W 122°24'1 2.4
2018-Mar-20 20:29N 37°49' W 122°25'0 0.1
2018-Mar-20 20:00N 37°49' W 122°25'0 0.1
2018-Mar-20 19:30N 37°49' W 122°25'0 0.0
2018-Mar-20 19:00N 37°49' W 122°25'1 2.5
2018-Mar-20 18:30N 37°48' W 122°24'510.7
2018-Mar-20 18:00N 37°48' W 122°17'510.5
2018-Mar-20 17:30N 37°48' W 122°24'1 2.7
2018-Mar-20 17:00N 37°49' W 122°25'0 0.0
2018-Mar-20 16:30N 37°49' W 122°25'1 2.6
2018-Mar-20 16:01N 37°48' W 122°24'714.6
2018-Mar-20 15:30N 37°44' W 122°15'714.6
2018-Mar-20 15:00N 37°48' W 122°24'714.6
2018-Mar-20 14:30N 37°44' W 122°15'714.7
2018-Mar-20 14:00N 37°48' W 122°24'714.0
2018-Mar-20 13:29N 37°44' W 122°15'2 4.8
2018-Mar-20 13:00N 37°45' W 122°18'511.0
2018-Mar-20 12:30N 37°48' W 122°24'0 0.0
2018-Mar-20 03:43N 37°48' W 122°24'0 0.9
2018-Mar-20 03:31N 37°48' W 122°24'814.9
2018-Mar-20 03:00N 37°44' W 122°15'714.9
2018-Mar-20 02:30N 37°48' W 122°24'714.6
2018-Mar-20 02:01N 37°44' W 122°15'714.5
2018-Mar-20 01:30N 37°48' W 122°23'714.3
2018-Mar-20 01:00N 37°44' W 122°16'714.4
2018-Mar-20 00:30N 37°48' W 122°24'714.6
2018-Mar-20 00:00N 37°44' W 122°15'714.0
2018-Mar-19 23:29N 37°48' W 122°24'0 0.0
2018-Mar-19 23:00N 37°48' W 122°24'0 0.0
2018-Mar-19 22:30N 37°48' W 122°24'2 3.6
2018-Mar-19 22:00N 37°48' W 122°21'3 5.7
2018-Mar-19 21:31N 37°47' W 122°18'5 9.1
2018-Mar-19 21:00N 37°48' W 122°24'1 2.6
2018-Mar-19 20:30N 37°49' W 122°25'0 0.0
2018-Mar-19 20:00N 37°49' W 122°25'0 0.0
2018-Mar-19 19:30N 37°49' W 122°25'0 0.0
2018-Mar-19 19:00N 37°49' W 122°25'1 2.6
2018-Mar-19 18:30N 37°48' W 122°24'510.7
2018-Mar-19 18:00N 37°48' W 122°17'510.6
2018-Mar-19 17:30N 37°48' W 122°24'1 2.6
2018-Mar-19 17:00N 37°49' W 122°25'0 0.0
2018-Mar-19 16:30N 37°49' W 122°25'1 2.7
2018-Mar-19 16:00N 37°48' W 122°23'5 9.1
2018-Mar-19 15:30N 37°47' W 122°18'5 9.1
2018-Mar-19 15:00N 37°48' W 122°23'714.0
2018-Mar-19 14:29N 37°44' W 122°15'715.3
2018-Mar-19 14:00N 37°48' W 122°24'714.5
2018-Mar-19 13:30N 37°44' W 122°15'4 9.0
2018-Mar-19 13:00N 37°46' W 122°21'3 6.5
2018-Mar-19 12:30N 37°48' W 122°24'  

Dump ship's entire track history